Aviation Digital Data Service (ADDS)

Output produced by METARs form (1826 UTC 16 August 2018)
found at http://www.aviationweather.gov/adds/metars/
 
FKKD 161800Z 00000KT 9999 BKN012 FEW015CB 25/24 Q1013 NOSIG
TAF FKKD 161700Z 1618/1724 22005KT 9999 SCT006 BKN012 FEW016CB 
     TEMPO 1620/1707 3000 RADZ 
     PROB30 
     TEMPO 1621/1702 2000 TSRADZ
       
FKKR 161800Z 28006KT 9999 TS FEW016 FEW020CB 30/24 Q1010 BECMG 08010KT 4000 TSRA BKN013 SCT020CB
FKKN 161700Z 21012KT 9999 TS BKN013 SCT020CB 21/20 Q1016
FKYS 161800Z /////KT 7000 -TSRA BKN010 FEW020CB 22/20 Q1018 NOSIG
TAF FKYS 161700Z 1618/1718 VRB05KT 8000 TS BKN013 FEW020CB 
     BECMG 1620/1622 NSW BKN006 
     BECMG 1706/1708 BKN016